createdAt,value
2023-04-15T00:01:56.408Z,100820.97
2023-04-15T00:04:26.877Z,100821.31
2023-04-15T00:06:57.282Z,100833.06
2023-04-15T00:09:27.661Z,100834.19
2023-04-15T00:11:57.906Z,100838.91
2023-04-15T00:14:28.637Z,100836.97
2023-04-15T00:16:59.770Z,100850.00
2023-04-15T00:19:30.173Z,100847.72
2023-04-15T00:22:03.912Z,100860.81
2023-04-15T00:24:37.299Z,100859.38
2023-04-15T00:27:08.077Z,100869.81
2023-04-15T00:29:38.435Z,100870.66
2023-04-15T00:32:09.068Z,100871.97
2023-04-15T00:34:39.658Z,100874.78
2023-04-15T00:37:12.222Z,100875.09
2023-04-15T00:39:43.227Z,100885.69
2023-04-15T00:42:14.455Z,100886.03
2023-04-15T00:44:45.151Z,100894.53
2023-04-15T00:47:16.285Z,100894.66
2023-04-15T00:49:46.291Z,100896.78
2023-04-15T00:52:16.742Z,100895.81
2023-04-15T00:54:47.081Z,100895.81
2023-04-15T00:57:17.524Z,100896.47
2023-04-15T00:59:47.884Z,100896.47
2023-04-15T01:02:18.855Z,100908.22
2023-04-15T01:04:49.528Z,100908.22
2023-04-15T01:07:19.880Z,100911.63
2023-04-15T01:09:50.614Z,100917.28
2023-04-15T01:12:23.017Z,100912.56
2023-04-15T01:14:53.909Z,100917.13
2023-04-15T01:17:24.073Z,100924.09
2023-04-15T01:19:54.754Z,100924.72
2023-04-15T01:22:25.281Z,100922.13
2023-04-15T01:25:04.734Z,100926.97
2023-04-15T01:27:36.475Z,100925.84
2023-04-15T01:30:07.753Z,100936.88
2023-04-15T01:32:38.197Z,100935.72
2023-04-15T01:35:09.090Z,100943.03
2023-04-15T01:37:40.059Z,100949.88
2023-04-15T01:40:10.995Z,100950.78
2023-04-15T01:42:41.254Z,100953.41
2023-04-15T01:45:12.500Z,100953.91
2023-04-15T01:47:42.967Z,100953.41
2023-04-15T01:50:13.781Z,100960.25
2023-04-15T01:52:44.215Z,100959.44
2023-04-15T01:55:16.516Z,100959.44
2023-04-15T01:57:49.067Z,100963.66
2023-04-15T02:00:20.228Z,100964.59
2023-04-15T02:02:50.495Z,100966.09
2023-04-15T02:05:20.928Z,100967.31
2023-04-15T02:07:51.885Z,100973.88
2023-04-15T02:10:22.159Z,100976.00
2023-04-15T02:12:52.281Z,100971.72
2023-04-15T02:15:22.821Z,100979.38
2023-04-15T02:17:54.958Z,100980.88
2023-04-15T02:20:25.985Z,100979.38
2023-04-15T02:22:56.461Z,100976.47
2023-04-15T02:25:27.260Z,100976.13
2023-04-15T02:28:00.735Z,100969.09
2023-04-15T02:30:31.095Z,100973.78
2023-04-15T02:33:05.860Z,100976.56
2023-04-15T02:35:36.067Z,100966.13
2023-04-15T02:38:14.146Z,100974.59
2023-04-15T02:40:47.092Z,100970.19
2023-04-15T02:43:17.470Z,100976.25
2023-04-15T02:45:49.715Z,100972.16
2023-04-15T02:48:21.949Z,100974.94
2023-04-15T02:50:52.399Z,100978.34
2023-04-15T02:53:23.264Z,100979.69
2023-04-15T02:55:54.024Z,100984.72
2023-04-15T02:58:24.367Z,100980.63
2023-04-15T03:00:54.695Z,100970.63
2023-04-15T03:03:26.664Z,100984.19
2023-04-15T03:05:57.120Z,100965.09
2023-04-15T03:08:28.001Z,100972.47
2023-04-15T03:11:03.637Z,100965.09
2023-04-15T03:13:36.272Z,100959.91
2023-04-15T03:16:14.102Z,100961.66
2023-04-15T03:18:45.554Z,100955.75
2023-04-15T03:21:16.326Z,100952.78
2023-04-15T03:23:48.485Z,100940.19
2023-04-15T03:26:33.050Z,100950.63
2023-04-15T03:29:12.580Z,100947.53
2023-04-15T03:31:44.004Z,100938.50
2023-04-15T03:34:17.845Z,100937.38
2023-04-15T03:36:53.432Z,100917.50
2023-04-15T03:39:25.170Z,100925.81
2023-04-15T03:41:55.793Z,100916.47
2023-04-15T03:44:26.171Z,100921.81
2023-04-15T03:46:57.089Z,100917.09
2023-04-15T03:49:27.218Z,100914.91
2023-04-15T03:51:58.650Z,100904.75
2023-04-15T03:54:29.093Z,100907.06
2023-04-15T03:57:00.304Z,100903.81
2023-04-15T03:59:30.822Z,100894.81
2023-04-15T04:02:01.169Z,100897.78
2023-04-15T04:04:31.650Z,100884.50
2023-04-15T04:07:02.108Z,100884.50
2023-04-15T04:10:24.010Z,100878.16
2023-04-15T04:12:54.518Z,100867.84
2023-04-15T04:15:24.827Z,100869.16
2023-04-15T04:17:54.952Z,100862.25
2023-04-15T04:20:25.177Z,100857.72
2023-04-15T04:22:55.313Z,100856.03
2023-04-15T04:25:25.623Z,100843.31
2023-04-15T04:27:56.127Z,100845.41
2023-04-15T04:30:26.456Z,100845.41
2023-04-15T04:32:56.835Z,100840.53
2023-04-15T04:35:27.178Z,100824.56
2023-04-15T04:37:57.556Z,100827.25
2023-04-15T04:40:28.238Z,100826.25
2023-04-15T04:42:58.717Z,100822.84
2023-04-15T04:45:29.580Z,100822.66
2023-04-15T04:48:00.135Z,100813.72
2023-04-15T04:50:30.383Z,100814.69
2023-04-15T04:53:01.131Z,100803.69
2023-04-15T04:55:31.470Z,100798.34
2023-04-15T04:58:01.835Z,100790.84
2023-04-15T05:00:32.761Z,100789.59
2023-04-15T05:03:03.655Z,100783.22
2023-04-15T05:05:34.046Z,100786.91
2023-04-15T05:08:04.408Z,100782.28
2023-04-15T05:10:34.699Z,100773.97
2023-04-15T05:13:05.061Z,100776.38
2023-04-15T05:15:47.417Z,100762.16
2023-04-15T05:18:17.537Z,100749.31
2023-04-15T05:20:47.655Z,100743.63
2023-04-15T05:23:19.064Z,100744.59
2023-04-15T05:25:49.365Z,100740.88
2023-04-15T05:28:20.023Z,100731.16
2023-04-15T05:30:50.450Z,100728.59
2023-04-15T05:33:20.752Z,100726.19
2023-04-15T05:35:51.065Z,100724.19
2023-04-15T05:38:21.514Z,100717.97
2023-04-15T05:40:51.812Z,100713.69
2023-04-15T05:43:21.943Z,100705.81
2023-04-15T05:45:55.622Z,100694.38
2023-04-15T05:48:28.839Z,100689.28
2023-04-15T05:50:59.092Z,100692.97
2023-04-15T05:53:29.649Z,100683.47
2023-04-15T05:55:59.689Z,100672.47
2023-04-15T05:58:30.071Z,100659.63
2023-04-15T06:01:00.535Z,100660.66
2023-04-15T06:03:31.035Z,100660.56
2023-04-15T06:06:01.381Z,100650.38
2023-04-15T06:08:31.954Z,100644.34
2023-04-15T06:11:02.289Z,100640.97
2023-04-15T06:13:32.818Z,100632.50
2023-04-15T06:16:04.988Z,100637.44
2023-04-15T06:18:35.475Z,100624.78
2023-04-15T06:21:05.895Z,100618.53
2023-04-15T06:23:39.820Z,100611.59
2023-04-15T06:26:10.909Z,100604.47
2023-04-15T06:28:41.168Z,100596.13
2023-04-15T06:31:11.587Z,100589.03
2023-04-15T06:33:42.377Z,100589.38
2023-04-15T06:36:12.699Z,100584.66
2023-04-15T06:38:43.164Z,100580.16
2023-04-15T06:41:13.556Z,100581.97
2023-04-15T06:43:43.913Z,100580.72
2023-04-15T06:46:14.339Z,100575.69
2023-04-15T06:48:44.853Z,100575.94
2023-04-15T06:51:15.092Z,100573.00
2023-04-15T06:53:46.409Z,100565.03
2023-04-15T06:56:16.684Z,100561.00
2023-04-15T06:58:52.529Z,100555.19
2023-04-15T07:01:32.321Z,100547.31
2023-04-15T07:04:02.873Z,100541.50
2023-04-15T07:06:33.595Z,100534.09
2023-04-15T07:09:04.410Z,100535.03
2023-04-15T07:11:34.996Z,100520.69
2023-04-15T07:14:05.841Z,100525.16
2023-04-15T07:16:36.203Z,100523.13
2023-04-15T07:19:06.496Z,100517.34
2023-04-15T07:21:36.777Z,100509.84
2023-04-15T07:24:07.270Z,100507.44
2023-04-15T07:26:37.529Z,100500.97
2023-04-15T07:29:08.470Z,100499.44
2023-04-15T07:31:39.891Z,100495.03
2023-04-15T07:34:10.469Z,100484.63
2023-04-15T07:36:42.226Z,100490.91
2023-04-15T07:39:12.603Z,100480.97
2023-04-15T07:41:43.316Z,100479.44
2023-04-15T07:44:14.013Z,100483.81
2023-04-15T07:46:44.284Z,100475.50
2023-04-15T07:49:14.716Z,100466.81
2023-04-15T07:51:44.992Z,100459.97
2023-04-15T07:54:15.216Z,100463.19
2023-04-15T07:56:45.602Z,100456.47
2023-04-15T07:59:17.871Z,100454.22
2023-04-15T08:01:49.086Z,100451.38
2023-04-15T08:04:19.920Z,100444.91
2023-04-15T08:06:52.212Z,100448.44
2023-04-15T08:09:22.569Z,100446.78
2023-04-15T08:11:53.831Z,100441.94
2023-04-15T08:14:24.632Z,100439.16
2023-04-15T08:16:54.926Z,100436.81
2023-04-15T08:19:25.455Z,100433.25
2023-04-15T08:21:56.190Z,100433.50
2023-04-15T08:24:28.731Z,100416.44
2023-04-15T08:26:59.967Z,100420.41
2023-04-15T08:29:30.921Z,100418.34
2023-04-15T08:32:06.361Z,100417.88
2023-04-15T08:34:37.240Z,100412.56
2023-04-15T08:37:07.445Z,100408.81
2023-04-15T08:39:37.758Z,100413.50
2023-04-15T08:42:14.316Z,100410.63
2023-04-15T08:44:47.202Z,100409.44
2023-04-15T08:47:19.069Z,100405.06
2023-04-15T08:49:55.834Z,100403.88
2023-04-15T08:52:31.033Z,100401.66
2023-04-15T08:55:04.873Z,100399.59
2023-04-15T08:57:36.371Z,100397.59
2023-04-15T09:00:07.128Z,100392.75
2023-04-15T09:02:38.551Z,100385.94
2023-04-15T09:05:10.459Z,100383.34
2023-04-15T09:07:41.147Z,100381.19
2023-04-15T09:10:13.124Z,100369.69
2023-04-15T09:12:43.445Z,100375.97
2023-04-15T09:15:18.011Z,100370.50
2023-04-15T09:17:50.380Z,100363.34
2023-04-15T09:20:23.800Z,100367.56
2023-04-15T09:22:55.079Z,100359.38
2023-04-15T09:25:32.207Z,100365.75
2023-04-15T09:28:05.272Z,100365.38
2023-04-15T09:30:36.025Z,100361.81
2023-04-15T09:33:10.600Z,100349.84
2023-04-15T09:35:40.960Z,100345.03
2023-04-15T09:38:13.258Z,100348.16
2023-04-15T09:40:44.928Z,100353.28
2023-04-15T09:43:19.785Z,100350.69
2023-04-15T09:45:57.599Z,100358.50
2023-04-15T09:48:33.633Z,100352.94
2023-04-15T09:51:04.896Z,100346.66
2023-04-15T09:53:38.933Z,100345.03
2023-04-15T09:56:11.274Z,100350.88
2023-04-15T09:58:41.789Z,100342.03
2023-04-15T10:01:13.905Z,100336.19
2023-04-15T10:03:45.143Z,100335.00
2023-04-15T10:06:35.527Z,100327.75
2023-04-15T10:09:05.917Z,100331.69
2023-04-15T10:11:37.901Z,100328.91
2023-04-15T10:14:09.992Z,100326.56
2023-04-15T10:16:45.574Z,100324.25
2023-04-15T10:19:18.698Z,100324.53
2023-04-15T10:21:49.535Z,100322.50
2023-04-15T10:24:23.166Z,100336.03
2023-04-15T10:26:55.231Z,100333.97
2023-04-15T10:29:29.722Z,100336.66
2023-04-15T10:32:03.056Z,100337.84
2023-04-15T10:34:37.818Z,100343.41
2023-04-15T10:37:08.251Z,100350.13
2023-04-15T10:39:46.764Z,100343.59
2023-04-15T10:42:19.723Z,100352.22
2023-04-15T10:44:55.500Z,100348.66
2023-04-15T10:47:26.688Z,100355.81
2023-04-15T10:50:01.000Z,100360.22
2023-04-15T10:52:32.173Z,100352.31
2023-04-15T10:55:13.926Z,100360.22
2023-04-15T10:57:45.787Z,100357.88
2023-04-15T11:00:20.514Z,100353.03
2023-04-15T11:03:10.455Z,100365.59
2023-04-15T11:05:54.130Z,100365.69
2023-04-15T11:08:58.626Z,100367.28
2023-04-15T11:12:07.523Z,100368.28
2023-04-15T11:14:42.730Z,100369.09
2023-04-15T11:17:13.115Z,100375.41
2023-04-15T11:19:43.764Z,100369.34
2023-04-15T11:22:15.050Z,100373.75
2023-04-15T11:24:52.963Z,100376.41
2023-04-15T11:27:26.932Z,100379.03
2023-04-15T11:29:57.256Z,100390.69
2023-04-15T11:32:27.614Z,100392.13
2023-04-15T11:34:58.063Z,100395.78
2023-04-15T11:37:32.797Z,100404.13
2023-04-15T11:40:06.126Z,100402.50
2023-04-15T11:42:48.612Z,100419.19
2023-04-15T11:45:20.102Z,100417.84
2023-04-15T11:47:50.420Z,100423.75
2023-04-15T11:50:26.486Z,100428.53
2023-04-15T11:53:09.741Z,100424.91
2023-04-15T11:55:51.947Z,100427.63
2023-04-15T11:58:25.114Z,100430.75
2023-04-15T12:00:58.024Z,100437.81
2023-04-15T12:03:33.672Z,100441.44
2023-04-15T12:06:18.895Z,100445.72
2023-04-15T12:08:58.187Z,100446.91
2023-04-15T12:11:35.319Z,100444.13
2023-04-15T12:14:27.167Z,100448.75
2023-04-15T12:17:01.163Z,100446.16
2023-04-15T12:19:33.963Z,100448.06
2023-04-15T12:22:24.630Z,100461.50
2023-04-15T12:24:59.817Z,100471.78
2023-04-15T12:27:30.737Z,100472.16
2023-04-15T12:30:08.490Z,100468.72
2023-04-15T12:32:40.452Z,100472.41
2023-04-15T12:35:12.487Z,100474.00
2023-04-15T12:37:42.964Z,100480.72
2023-04-15T12:40:13.706Z,100490.78
2023-04-15T12:42:44.296Z,100494.63
2023-04-15T12:45:14.445Z,100501.34
2023-04-15T12:47:44.693Z,100504.94
2023-04-15T12:50:15.043Z,100508.03
2023-04-15T12:52:45.244Z,100515.03
2023-04-15T12:55:15.563Z,100519.78
2023-04-15T12:57:46.091Z,100517.34
2023-04-15T13:00:17.009Z,100527.53
2023-04-15T13:02:47.559Z,100521.50
2023-04-15T13:05:18.317Z,100525.81
2023-04-15T13:07:48.767Z,100541.78
2023-04-15T13:10:19.135Z,100545.34
2023-04-15T13:12:51.848Z,100550.91
2023-04-15T13:15:25.754Z,100540.47
2023-04-15T13:17:56.377Z,100549.44
2023-04-15T13:20:29.408Z,100558.31
2023-04-15T13:22:59.777Z,100560.97
2023-04-15T13:25:30.372Z,100561.91
2023-04-15T13:28:01.143Z,100567.78
2023-04-15T13:30:31.536Z,100565.38
2023-04-15T13:33:02.390Z,100582.63
2023-04-15T13:35:32.904Z,100580.09
2023-04-15T13:38:03.394Z,100584.94
2023-04-15T13:40:33.952Z,100584.63
2023-04-15T13:43:04.576Z,100593.66
2023-04-15T13:45:35.148Z,100591.78
2023-04-15T13:48:05.591Z,100600.69
2023-04-15T13:50:36.049Z,100605.34
2023-04-15T13:53:06.484Z,100611.59
2023-04-15T13:55:37.987Z,100614.94
2023-04-15T13:58:08.467Z,100615.50
2023-04-15T14:00:38.897Z,100612.25
2023-04-15T14:03:09.456Z,100620.72
2023-04-15T14:05:40.588Z,100622.00
2023-04-15T14:08:10.819Z,100626.72
2023-04-15T14:10:41.400Z,100619.22
2023-04-15T14:13:11.619Z,100621.16
2023-04-15T14:15:41.973Z,100634.25
2023-04-15T14:18:12.328Z,100625.78
2023-04-15T14:20:42.707Z,100629.50
2023-04-15T14:23:13.396Z,100629.41
2023-04-15T14:25:44.692Z,100628.13
2023-04-15T14:28:16.597Z,100630.88
2023-04-15T14:30:46.832Z,100632.50
2023-04-15T14:33:17.142Z,100637.50
2023-04-15T14:35:47.522Z,100639.69
2023-04-15T14:38:17.900Z,100640.41
2023-04-15T14:40:48.295Z,100646.28
2023-04-15T14:43:19.497Z,100649.16
2023-04-15T14:45:50.215Z,100647.63
2023-04-15T14:48:20.560Z,100650.22
2023-04-15T14:50:50.982Z,100647.22
2023-04-15T14:53:21.530Z,100651.47
2023-04-15T14:55:52.080Z,100658.66
2023-04-15T14:58:22.201Z,100666.50
2023-04-15T15:00:52.574Z,100665.91
2023-04-15T15:03:23.190Z,100668.22
2023-04-15T15:05:53.518Z,100665.22
2023-04-15T15:08:23.931Z,100665.69
2023-04-15T15:10:54.273Z,100669.16
2023-04-15T15:13:24.511Z,100679.09
2023-04-15T15:15:54.845Z,100679.00
2023-04-15T15:18:27.846Z,100686.97
2023-04-15T15:20:58.242Z,100693.31
2023-04-15T15:23:28.558Z,100704.00
2023-04-15T15:25:59.033Z,100705.72
2023-04-15T15:28:29.717Z,100708.50
2023-04-15T15:31:00.029Z,100710.81
2023-04-15T15:33:30.472Z,100720.50
2023-04-15T15:36:01.171Z,100722.25
2023-04-15T15:38:31.583Z,100707.81
2023-04-15T15:41:02.061Z,100705.03
2023-04-15T15:43:32.320Z,100704.91
2023-04-15T15:46:03.814Z,100704.91
2023-04-15T15:49:05.199Z,100709.53
2023-04-15T15:51:35.896Z,100715.44
2023-04-15T15:54:09.266Z,100725.25
2023-04-15T15:56:40.894Z,100727.69
2023-04-15T15:59:11.166Z,100720.06
2023-04-15T16:01:41.323Z,100730.38
2023-04-15T16:04:12.752Z,100732.31
2023-04-15T16:06:44.070Z,100737.38
2023-04-15T16:09:13.935Z,100745.25
2023-04-15T16:11:44.545Z,100750.94
2023-04-15T16:14:16.457Z,100759.94
2023-04-15T16:16:46.910Z,100760.25
2023-04-15T16:19:17.860Z,100766.94
2023-04-15T16:21:48.289Z,100775.75
2023-04-15T16:24:22.227Z,100767.78
2023-04-15T16:26:52.461Z,100772.50
2023-04-15T16:29:22.904Z,100776.44
2023-04-15T16:31:53.474Z,100772.50
2023-04-15T16:34:23.840Z,100776.78
2023-04-15T16:36:54.219Z,100768.13
2023-04-15T16:39:26.429Z,100763.72
2023-04-15T16:41:56.706Z,100767.31
2023-04-15T16:44:28.253Z,100767.31
2023-04-15T16:46:59.119Z,100768.13
2023-04-15T16:49:29.238Z,100760.47
2023-04-15T16:52:00.388Z,100758.97
2023-04-15T16:54:32.156Z,100760.47
2023-04-15T16:57:02.479Z,100758.19
2023-04-15T16:59:32.796Z,100753.31
2023-04-15T17:02:03.217Z,100749.72
2023-04-15T17:04:33.648Z,100745.31
2023-04-15T17:07:03.946Z,100743.38
2023-04-15T17:09:34.658Z,100744.53
2023-04-15T17:12:06.479Z,100733.91
2023-04-15T17:14:37.498Z,100747.75
2023-04-15T17:17:08.612Z,100738.97
2023-04-15T17:19:38.563Z,100732.59
2023-04-15T17:22:09.718Z,100726.25
2023-04-15T17:24:39.977Z,100726.72
2023-04-15T17:27:10.112Z,100720.72
2023-04-15T17:29:40.277Z,100722.31
2023-04-15T17:32:10.562Z,100719.56
2023-04-15T17:34:49.757Z,100723.00
2023-04-15T17:37:21.546Z,100711.44
2023-04-15T17:39:51.789Z,100710.28
2023-04-15T17:42:22.122Z,100715.03
2023-04-15T17:44:52.500Z,100715.84
2023-04-15T17:47:23.205Z,100722.53
2023-04-15T17:49:53.575Z,100709.50
2023-04-15T17:52:23.813Z,100708.19
2023-04-15T17:54:54.097Z,100710.19
2023-04-15T17:57:24.335Z,100717.47
2023-04-15T17:59:54.554Z,100708.66
2023-04-15T18:02:24.930Z,100704.28
2023-04-15T18:04:55.418Z,100697.00
2023-04-15T18:07:25.772Z,100691.81
2023-04-15T18:09:58.288Z,100683.59
2023-04-15T18:12:28.459Z,100676.31
2023-04-15T18:14:58.704Z,100675.50
2023-04-15T18:17:29.942Z,100678.63
2023-04-15T18:20:00.231Z,100683.00
2023-04-15T18:22:30.573Z,100685.31
2023-04-15T18:25:06.390Z,100686.94
2023-04-15T18:27:38.225Z,100678.97
2023-04-15T18:30:11.452Z,100669.38
2023-04-15T18:32:45.182Z,100666.25
2023-04-15T18:35:35.914Z,100667.53
2023-04-15T18:38:06.289Z,100651.56
2023-04-15T18:40:36.575Z,100641.75
2023-04-15T18:43:06.912Z,100642.91
2023-04-15T18:45:37.297Z,100638.63
2023-04-15T18:48:07.898Z,100626.03
2023-04-15T18:50:38.343Z,100615.19
2023-04-15T18:53:08.615Z,100619.56
2023-04-15T18:55:38.972Z,100617.59
2023-04-15T18:58:10.268Z,100601.75
2023-04-15T19:00:44.080Z,100595.31
2023-04-15T19:03:14.502Z,100591.38
2023-04-15T19:05:44.797Z,100585.00
2023-04-15T19:08:15.258Z,100585.69
2023-04-15T19:10:46.201Z,100570.34
2023-04-15T19:13:18.352Z,100566.63
2023-04-15T19:15:49.621Z,100564.34
2023-04-15T19:18:19.883Z,100556.34
2023-04-15T19:20:57.396Z,100560.75
2023-04-15T19:23:42.110Z,100556.00
2023-04-15T19:26:12.781Z,100556.34
2023-04-15T19:28:42.955Z,100557.16
2023-04-15T19:31:13.197Z,100554.41
2023-04-15T19:33:49.369Z,100555.19
2023-04-15T19:36:20.612Z,100554.41
2023-04-15T19:38:50.570Z,100540.06
2023-04-15T19:41:20.675Z,100538.91
2023-04-15T19:43:50.946Z,100534.53
2023-04-15T19:46:21.223Z,100532.91
2023-04-15T19:48:51.664Z,100523.31
2023-04-15T19:51:22.038Z,100533.72
2023-04-15T19:53:52.355Z,100538.34
2023-04-15T19:56:23.147Z,100538.34
2023-04-15T19:58:55.417Z,100533.25
2023-04-15T20:01:25.925Z,100538.34
2023-04-15T20:03:56.985Z,100546.66
2023-04-15T20:06:29.180Z,100539.97
2023-04-15T20:08:59.617Z,100537.19
2023-04-15T20:12:09.659Z,100538.66
2023-04-15T20:14:24.144Z,100543.88
2023-04-15T20:16:54.446Z,100542.25
2023-04-15T20:19:24.763Z,100549.06
2023-04-15T20:21:56.361Z,100551.53
2023-04-15T20:24:26.813Z,100554.63
2023-04-15T20:26:57.120Z,100559.00
2023-04-15T20:29:27.526Z,100565.38
2023-04-15T20:31:58.695Z,100574.50
2023-04-15T20:34:28.651Z,100587.56
2023-04-15T20:36:59.326Z,100592.75
2023-04-15T20:39:29.815Z,100596.69
2023-04-15T20:42:00.143Z,100594.72
2023-04-15T20:44:30.836Z,100591.13
2023-04-15T20:47:01.656Z,100592.75
2023-04-15T20:49:39.022Z,100594.25
2023-04-15T20:52:10.539Z,100606.50
2023-04-15T20:54:40.742Z,100610.44
2023-04-15T20:57:11.076Z,100616.44
2023-04-15T20:59:41.383Z,100614.69
2023-04-15T21:02:11.930Z,100618.28
2023-04-15T21:04:42.169Z,100618.97
2023-04-15T21:07:12.859Z,100623.16
2023-04-15T21:09:43.871Z,100630.53
2023-04-15T21:12:14.274Z,100633.31
2023-04-15T21:14:44.503Z,100635.59
2023-04-15T21:17:14.808Z,100644.59
2023-04-15T21:19:45.766Z,100631.22
2023-04-15T21:22:15.855Z,100636.28
2023-04-15T21:24:46.147Z,100637.00
2023-04-15T21:27:16.461Z,100645.16
2023-04-15T21:29:46.615Z,100641.09
2023-04-15T21:32:16.830Z,100647.81
2023-04-15T21:34:47.298Z,100644.56
2023-04-15T21:37:17.741Z,100641.59
2023-04-15T21:39:48.088Z,100642.25
2023-04-15T21:42:18.432Z,100647.34
2023-04-15T21:44:48.810Z,100644.22
2023-04-15T21:47:19.110Z,100645.25
2023-04-15T21:49:49.566Z,100642.13
2023-04-15T21:52:20.107Z,100638.53
2023-04-15T21:54:50.473Z,100631.06
2023-04-15T21:57:20.520Z,100634.16
2023-04-15T21:59:50.607Z,100637.41
2023-04-15T22:02:20.837Z,100626.53
2023-04-15T22:04:51.224Z,100636.13
2023-04-15T22:07:21.612Z,100634.84
2023-04-15T22:09:51.913Z,100636.34
2023-04-15T22:12:22.005Z,100631.25
2023-04-15T22:14:52.428Z,100617.06
2023-04-15T22:17:22.809Z,100607.16
2023-04-15T22:19:53.067Z,100610.25
2023-04-15T22:22:27.413Z,100614.03
2023-04-15T22:25:14.473Z,100611.75
2023-04-15T22:27:44.861Z,100617.97
2023-04-15T22:30:15.647Z,100608.50
2023-04-15T22:32:46.400Z,100625.13
2023-04-15T22:35:16.817Z,100623.88
2023-04-15T22:37:47.069Z,100629.72
2023-04-15T22:40:17.329Z,100627.31
2023-04-15T22:42:48.657Z,100633.53
2023-04-15T22:45:19.059Z,100630.41
2023-04-15T22:47:49.391Z,100624.75
2023-04-15T22:50:19.720Z,100627.19
2023-04-15T22:52:50.649Z,100621.66
2023-04-15T22:55:20.990Z,100629.97
2023-04-15T22:57:51.173Z,100642.22
2023-04-15T23:00:21.249Z,100652.59
2023-04-15T23:02:52.070Z,100664.50
2023-04-15T23:05:22.655Z,100680.28
2023-04-15T23:07:53.134Z,100690.94
2023-04-15T23:10:23.622Z,100700.72
2023-04-15T23:12:54.040Z,100705.47
2023-04-15T23:15:24.461Z,100705.31
2023-04-15T23:17:54.847Z,100694.38
2023-04-15T23:20:25.145Z,100688.38
2023-04-15T23:22:55.508Z,100683.28
2023-04-15T23:25:25.927Z,100683.50
2023-04-15T23:27:56.644Z,100688.69
2023-04-15T23:30:26.946Z,100700.59
2023-04-15T23:32:57.507Z,100718.84
2023-04-15T23:35:29.645Z,100729.44
2023-04-15T23:37:59.941Z,100738.13
2023-04-15T23:40:30.148Z,100740.72
2023-04-15T23:43:00.747Z,100760.13
2023-04-15T23:45:31.706Z,100781.16
2023-04-15T23:48:02.052Z,100776.75
2023-04-15T23:50:32.407Z,100779.53
2023-04-15T23:53:02.885Z,100791.38
2023-04-15T23:55:34.230Z,100803.06
2023-04-15T23:58:04.941Z,100804.19
